Time;durP1;ratioP1;P1;durP2;ratioP2;P2;SDS_P1;SDS_P2;PMS_P1;PMS_P2;Temp;Humidity;BMP_temperature;BMP_pressure;BME280_temperature;BME280_humidity;BME280_pressure;Samples;Min_cycle;Max_cycle;Signal;HPM_P1;HPM_P2
2022/07/14 00:02:22;;;;;;;;;9.20;9.20;;;;;-146.44;100.00;58906.56;5091200;27;45362;-69
2022/07/14 00:04:47;;;;;;;;;11.00;10.25;;;;;-146.44;100.00;58906.56;5075109;28;45391;-69
2022/07/14 00:07:13;;;;;;;;;9.00;9.00;;;;;-146.44;100.00;58906.56;5075096;28;45440;-70
2022/07/14 00:09:38;;;;;;;;;11.50;10.00;;;;;-146.44;100.00;58906.56;5073476;28;45437;-69
2022/07/14 00:12:04;;;;;;;;;13.50;11.75;;;;;-146.44;100.00;58906.56;5075952;27;45358;-69
2022/07/14 00:14:29;;;;;;;;;10.25;10.25;;;;;-146.44;100.00;58906.56;5078729;27;45400;-69
2022/07/14 00:16:55;;;;;;;;;10.50;10.50;;;;;-146.44;100.00;58906.56;5078777;27;45386;-69
2022/07/14 00:19:20;;;;;;;;;11.25;11.25;;;;;-146.44;100.00;58906.56;5078685;28;45381;-69
2022/07/14 00:21:46;;;;;;;;;11.00;11.00;;;;;-146.44;100.00;58906.56;5078844;28;45895;-69
2022/07/14 00:24:12;;;;;;;;;12.00;11.75;;;;;-146.44;100.00;58906.56;5078688;27;45681;-69
2022/07/14 00:26:42;;;;;;;;;15.00;14.00;;;;;-146.44;100.00;58906.56;5078660;27;45520;-69
2022/07/14 00:29:08;;;;;;;;;14.40;13.00;;;;;-146.44;100.00;58906.56;5078703;27;45516;-69
2022/07/14 00:31:34;;;;;;;;;13.50;13.50;;;;;-146.44;100.00;58906.56;5078863;28;45467;-69
2022/07/14 00:34:02;;;;;;;;;14.50;12.00;;;;;-146.44;100.00;58906.56;5078512;28;45377;-69
2022/07/14 00:36:28;;;;;;;;;19.25;16.75;;;;;-146.44;100.00;58906.56;5078235;28;45610;-69
2022/07/14 00:38:54;;;;;;;;;18.75;17.50;;;;;-146.44;100.00;58906.56;5078555;28;45363;-69
2022/07/14 00:41:19;;;;;;;;;15.50;15.50;;;;;-146.44;100.00;58906.56;5078487;28;45424;-69
2022/07/14 00:43:45;;;;;;;;;18.25;18.25;;;;;-146.44;100.00;58906.56;5078489;28;45547;-69
2022/07/14 00:46:10;;;;;;;;;13.25;12.00;;;;;-146.44;100.00;58906.56;5078273;28;45429;-69
2022/07/14 00:48:36;;;;;;;;;17.00;17.00;;;;;-146.44;100.00;58906.56;5078093;28;45480;-69
2022/07/14 00:51:01;;;;;;;;;20.50;17.75;;;;;-146.44;100.00;58906.56;5078509;27;45357;-69
2022/07/14 00:53:26;;;;;;;;;20.75;18.25;;;;;-146.44;100.00;58906.56;5078121;28;45689;-69
2022/07/14 00:55:52;;;;;;;;;20.00;20.00;;;;;-146.44;100.00;58906.56;5078047;28;45375;-69
2022/07/14 00:58:18;;;;;;;;;19.75;19.75;;;;;-146.44;100.00;58906.56;5078155;28;45409;-69
2022/07/14 01:00:44;;;;;;;;;22.00;21.00;;;;;-146.44;100.00;58906.56;5078296;27;45378;-70
2022/07/14 01:03:10;;;;;;;;;19.00;18.00;;;;;-146.44;100.00;58906.56;5078251;28;45334;-69
2022/07/14 01:05:35;;;;;;;;;25.00;23.00;;;;;-146.44;100.00;58906.56;5078246;27;45420;-69
2022/07/14 01:08:01;;;;;;;;;19.25;15.00;;;;;-146.44;100.00;58906.56;5078030;28;45529;-69
2022/07/14 01:10:26;;;;;;;;;27.00;25.25;;;;;-146.44;100.00;58906.56;5078154;28;45915;-69
2022/07/14 01:12:52;;;;;;;;;24.50;24.50;;;;;-146.44;100.00;58906.56;5078038;28;45511;-69
2022/07/14 01:15:18;;;;;;;;;30.00;28.75;;;;;-146.44;100.00;58906.56;5077722;28;45503;-69
2022/07/14 01:17:47;;;;;;;;;37.00;32.67;;;;;-146.44;100.00;58906.56;5077979;28;45555;-69
2022/07/14 01:20:12;;;;;;;;;35.67;32.67;;;;;-146.44;100.00;58906.56;5076682;27;45506;-69
2022/07/14 01:22:38;;;;;;;;;33.33;30.00;;;;;-146.44;100.00;58906.56;5093664;27;45477;-69
2022/07/14 01:25:06;;;;;;;;;30.75;28.50;;;;;-146.44;100.00;58906.56;5076469;28;46352;-69
2022/07/14 01:27:33;;;;;;;;;22.50;22.50;;;;;-146.44;100.00;58906.56;5078041;27;45553;-68
2022/07/14 01:29:59;;;;;;;;;18.25;16.75;;;;;-146.44;100.00;58906.56;5093282;27;45452;-69
2022/07/14 01:32:24;;;;;;;;;19.50;18.75;;;;;-146.44;100.00;58906.56;5077677;28;45538;-69
2022/07/14 01:34:50;;;;;;;;;17.75;17.75;;;;;-146.44;100.00;58906.56;5077365;27;46087;-69
2022/07/14 01:37:15;;;;;;;;;16.75;16.75;;;;;-146.44;100.00;58906.56;5076347;28;45549;-69
2022/07/14 01:39:41;;;;;;;;;14.75;14.75;;;;;-146.44;100.00;58906.56;5077754;28;45358;-69
2022/07/14 01:42:06;;;;;;;;;14.00;13.50;;;;;-146.44;100.00;58906.56;5077439;28;45539;-70
2022/07/14 01:44:32;;;;;;;;;13.00;13.00;;;;;-146.44;100.00;58906.56;5077387;27;45304;-69
2022/07/14 01:46:57;;;;;;;;;14.75;13.75;;;;;-146.44;100.00;58906.56;5077344;27;45404;-69
2022/07/14 01:49:22;;;;;;;;;12.50;12.50;;;;;-146.44;100.00;58906.56;5077593;28;45396;-69
2022/07/14 01:51:48;;;;;;;;;15.25;15.25;;;;;-146.44;100.00;58906.56;5077611;28;45370;-69
2022/07/14 01:54:13;;;;;;;;;13.75;12.25;;;;;-146.44;100.00;58906.56;5077088;28;46366;-69
2022/07/14 01:56:42;;;;;;;;;11.00;10.25;;;;;-146.44;100.00;58906.56;5077024;27;47387;-69
2022/07/14 01:59:08;;;;;;;;;9.20;9.20;;;;;-146.44;100.00;58906.56;5077406;28;45472;-69
2022/07/14 02:01:40;;;;;;;;;11.00;10.00;;;;;-146.44;100.00;58906.56;5077374;28;45488;-69
2022/07/14 02:04:10;;;;;;;;;11.00;10.00;;;;;-146.44;100.00;58906.56;5077155;28;45319;-69
2022/07/14 02:06:40;;;;;;;;;6.40;6.40;;;;;-146.44;100.00;58906.56;5077024;27;45566;-68
2022/07/14 02:09:05;;;;;;;;;8.40;8.40;;;;;-146.44;100.00;58906.56;5077199;28;45432;-68
2022/07/14 02:14:15;;;;;;;;;9.50;7.50;;;;;-146.44;100.00;58906.56;5076785;28;45677;-69
2022/07/14 02:16:40;;;;;;;;;9.00;9.00;;;;;-146.44;100.00;58906.56;5076909;27;45481;-69
2022/07/14 02:19:06;;;;;;;;;8.75;8.75;;;;;-146.44;100.00;58906.56;5077241;28;45513;-69
2022/07/14 02:21:31;;;;;;;;;7.50;7.50;;;;;-146.44;100.00;58906.56;5076822;28;45421;-69
2022/07/14 02:23:57;;;;;;;;;9.00;9.00;;;;;-146.44;100.00;58906.56;5076816;28;45505;-69
2022/07/14 02:26:23;;;;;;;;;9.50;9.50;;;;;-146.44;100.00;58906.56;5075247;28;45533;-69
2022/07/14 02:28:48;;;;;;;;;12.00;10.40;;;;;-146.44;100.00;58906.56;5076774;27;45506;-68
2022/07/14 02:31:14;;;;;;;;;12.00;12.00;;;;;-146.44;100.00;58906.56;5076827;28;45445;-69
2022/07/14 02:33:40;;;;;;;;;11.25;9.50;;;;;-146.44;100.00;58906.56;5076686;27;45962;-70
2022/07/14 02:36:06;;;;;;;;;16.20;12.80;;;;;-146.44;100.00;58906.56;5076150;28;45488;-71
2022/07/14 02:38:31;;;;;;;;;11.00;11.00;;;;;-146.44;100.00;58906.56;5076868;28;45460;-70
2022/07/14 02:40:57;;;;;;;;;10.00;10.00;;;;;-146.44;100.00;58906.56;5076656;28;45429;-69
2022/07/14 02:43:22;;;;;;;;;10.00;10.00;;;;;-146.44;100.00;58906.56;5076402;28;45445;-68
2022/07/14 02:45:48;;;;;;;;;9.75;9.75;;;;;-146.44;100.00;58906.56;5076356;28;45429;-68
2022/07/14 02:48:14;;;;;;;;;8.20;8.20;;;;;-146.44;100.00;58906.56;5076569;27;45394;-70
2022/07/14 02:50:40;;;;;;;;;9.00;8.00;;;;;-146.44;100.00;58906.56;5076597;28;45426;-68
2022/07/14 02:53:06;;;;;;;;;0.50;0.50;;;;;-146.44;100.00;58906.56;5076383;28;45858;-69
2022/07/14 02:55:34;;;;;;;;;7.25;7.25;;;;;-146.44;100.00;58906.56;5076378;28;45444;-69
2022/07/14 02:58:00;;;;;;;;;8.50;7.50;;;;;-146.44;100.00;58906.56;5076622;28;45448;-68
2022/07/14 03:00:26;;;;;;;;;7.75;6.75;;;;;-146.44;100.00;58906.56;5076502;28;45427;-70
2022/07/14 03:02:51;;;;;;;;;8.25;8.25;;;;;-146.44;100.00;58906.56;5074913;27;45396;-71
2022/07/14 03:05:17;;;;;;;;;10.00;9.00;;;;;-146.44;100.00;58906.56;5076253;28;45381;-70
2022/07/14 03:07:42;;;;;;;;;9.75;9.00;;;;;-146.44;100.00;58906.56;5076405;28;45445;-70
2022/07/14 03:10:08;;;;;;;;;9.25;7.75;;;;;-146.44;100.00;58906.56;5076311;28;45465;-70
2022/07/14 03:12:33;;;;;;;;;8.50;8.00;;;;;-146.44;100.00;58906.56;5075930;28;46267;-70
2022/07/14 03:15:00;;;;;;;;;7.75;6.50;;;;;-146.44;100.00;58906.56;5075863;28;45368;-68
2022/07/14 03:17:26;;;;;;;;;9.00;8.00;;;;;-146.44;100.00;58906.56;5076088;28;45433;-68
2022/07/14 03:19:51;;;;;;;;;7.75;7.75;;;;;-146.44;100.00;58906.56;5076145;27;45331;-70
2022/07/14 03:22:16;;;;;;;;;5.00;5.00;;;;;-146.44;100.00;58906.56;5076320;27;45373;-68
2022/07/14 03:24:42;;;;;;;;;7.00;7.00;;;;;-146.44;100.00;58906.56;5075932;28;45512;-68
2022/07/14 03:27:08;;;;;;;;;7.00;7.00;;;;;-146.44;100.00;58906.56;5074866;28;45444;-68
2022/07/14 03:29:33;;;;;;;;;7.75;7.75;;;;;-146.44;100.00;58906.56;5075912;28;45538;-68
2022/07/14 03:31:58;;;;;;;;;6.25;6.00;;;;;-146.44;100.00;58906.56;5075859;28;46159;-68
2022/07/14 03:34:24;;;;;;;;;9.50;9.50;;;;;-146.44;100.00;58906.56;5076013;28;45518;-68
2022/07/14 03:36:49;;;;;;;;;9.25;9.25;;;;;-146.44;100.00;58906.56;5075539;28;50024;-68
2022/07/14 03:39:14;;;;;;;;;10.00;10.00;;;;;-146.44;100.00;58906.56;5074485;28;45619;-68
2022/07/14 03:41:40;;;;;;;;;12.00;10.25;;;;;-146.44;100.00;58906.56;5075529;27;47032;-68
2022/07/14 03:44:05;;;;;;;;;10.25;10.25;;;;;-146.44;100.00;58906.56;5075439;27;45493;-68
2022/07/14 03:46:31;;;;;;;;;12.00;10.00;;;;;-146.44;100.00;58906.56;5074963;27;45479;-68
2022/07/14 03:48:56;;;;;;;;;12.00;10.00;;;;;-146.44;100.00;58906.56;5075438;28;45667;-68
2022/07/14 03:51:22;;;;;;;;;9.00;9.00;;;;;-146.44;100.00;58906.56;5075562;27;45895;-68
2022/07/14 03:53:47;;;;;;;;;9.00;9.00;;;;;-146.44;100.00;58906.56;5075306;28;45346;-68
2022/07/14 03:56:12;;;;;;;;;9.50;9.50;;;;;-146.44;100.00;58906.56;5073727;28;45526;-68
2022/07/14 03:58:38;;;;;;;;;8.00;8.00;;;;;-146.44;100.00;58906.56;5075607;27;45330;-68
2022/07/14 04:01:03;;;;;;;;;6.50;6.50;;;;;-146.44;100.00;58906.56;5075330;28;46177;-68
2022/07/14 04:03:30;;;;;;;;;13.00;11.50;;;;;-146.44;100.00;58906.56;5075274;28;45489;-68
2022/07/14 04:05:56;;;;;;;;;9.25;9.25;;;;;-146.44;100.00;58906.56;5075275;28;45453;-68
2022/07/14 04:08:21;;;;;;;;;9.25;9.00;;;;;-146.44;100.00;58906.56;5075316;28;45551;-68
2022/07/14 04:10:47;;;;;;;;;9.50;8.00;;;;;-146.44;100.00;58906.56;5075323;28;46012;-68
2022/07/14 04:13:14;;;;;;;;;9.25;9.25;;;;;-146.44;100.00;58906.56;5075458;27;45414;-68
2022/07/14 04:15:39;;;;;;;;;10.25;10.25;;;;;-146.44;100.00;58906.56;5074089;28;45432;-68
2022/07/14 04:18:05;;;;;;;;;8.75;7.50;;;;;-146.44;100.00;58906.56;5075339;27;45605;-68
2022/07/14 04:20:30;;;;;;;;;8.50;8.50;;;;;-146.44;100.00;58906.56;5075022;27;45410;-68
2022/07/14 04:22:55;;;;;;;;;8.25;8.25;;;;;-146.44;100.00;58906.56;5075126;28;46232;-68
2022/07/14 04:25:21;;;;;;;;;8.00;7.75;;;;;-146.44;100.00;58906.56;5075145;28;45459;-68
2022/07/14 04:27:46;;;;;;;;;9.00;9.00;;;;;-146.44;100.00;58906.56;5075304;28;45487;-68
2022/07/14 04:30:13;;;;;;;;;8.75;8.75;;;;;-146.44;100.00;58906.56;5074902;28;46834;-68
2022/07/14 04:32:39;;;;;;;;;8.25;8.25;;;;;-146.44;100.00;58906.56;5075052;28;45428;-68
2022/07/14 04:35:05;;;;;;;;;9.25;9.25;;;;;-146.44;100.00;58906.56;5075150;28;45405;-68
2022/07/14 04:37:31;;;;;;;;;10.00;10.00;;;;;-146.44;100.00;58906.56;5075144;28;45672;-68
2022/07/14 04:39:56;;;;;;;;;8.50;8.50;;;;;-146.44;100.00;58906.56;5074893;28;46041;-68
2022/07/14 04:42:23;;;;;;;;;8.00;8.00;;;;;-146.44;100.00;58906.56;5074861;28;45488;-68
2022/07/14 04:44:48;;;;;;;;;9.75;8.75;;;;;-146.44;100.00;58906.56;5074930;28;45429;-68
2022/07/14 04:47:14;;;;;;;;;10.00;10.00;;;;;-146.44;100.00;58906.56;5090405;27;45829;-69
2022/07/14 04:52:24;;;;;;;;;13.00;12.00;;;;;-146.44;100.00;58906.56;5074636;28;45483;-68
2022/07/14 04:54:50;;;;;;;;;8.75;8.75;;;;;-146.44;100.00;58906.56;5074741;28;45450;-68
2022/07/14 04:57:15;;;;;;;;;10.75;9.50;;;;;-146.44;100.00;58906.56;5073258;28;45671;-69
2022/07/14 04:59:40;;;;;;;;;9.00;8.25;;;;;-146.44;100.00;58906.56;5077195;28;50800;-68
2022/07/14 05:02:06;;;;;;;;;9.00;9.00;;;;;-146.44;100.00;58906.56;5077852;28;45412;-69
2022/07/14 05:04:32;;;;;;;;;9.25;9.25;;;;;-146.44;100.00;58906.56;5078135;28;45440;-69
2022/07/14 05:06:57;;;;;;;;;8.25;8.25;;;;;-146.44;100.00;58906.56;5078130;27;45490;-69
2022/07/14 05:09:30;;;;;;;;;8.25;8.25;;;;;-146.44;100.00;58906.56;5077949;28;46191;-69
2022/07/14 05:11:56;;;;;;;;;10.00;10.00;;;;;-146.44;100.00;58906.56;5078257;27;45383;-69
2022/07/14 05:14:21;;;;;;;;;8.00;8.00;;;;;-146.44;100.00;58906.56;5078073;28;45480;-69
2022/07/14 05:16:48;;;;;;;;;11.75;10.25;;;;;-146.44;100.00;58906.56;5077835;28;45525;-69
2022/07/14 05:19:15;;;;;;;;;10.25;9.25;;;;;-146.44;100.00;58906.56;5077859;27;46067;-69
2022/07/14 05:21:40;;;;;;;;;8.60;8.60;;;;;-146.44;100.00;58906.56;5077925;28;45387;-69
2022/07/14 05:24:06;;;;;;;;;8.75;8.75;;;;;-146.44;100.00;58906.56;5077905;27;45422;-69
2022/07/14 05:26:31;;;;;;;;;7.50;7.50;;;;;-146.44;100.00;58906.56;5077725;28;45558;-69
2022/07/14 05:28:56;;;;;;;;;9.75;8.50;;;;;-146.44;100.00;58906.56;5077612;28;46039;-69
2022/07/14 05:31:22;;;;;;;;;10.00;10.00;;;;;-146.44;100.00;58906.56;5077601;28;45480;-69
2022/07/14 05:33:48;;;;;;;;;8.50;8.50;;;;;-146.44;100.00;58906.56;5077795;28;45448;-69
2022/07/14 05:36:14;;;;;;;;;10.75;9.00;;;;;-146.44;100.00;58906.56;5077683;27;45572;-69
2022/07/14 05:38:40;;;;;;;;;8.50;8.50;;;;;-146.44;100.00;58906.56;5076108;27;45476;-69
2022/07/14 05:41:05;;;;;;;;;7.25;7.25;;;;;-146.44;100.00;58906.56;5077623;28;45543;-69
2022/07/14 05:43:31;;;;;;;;;9.50;9.50;;;;;-146.44;100.00;58906.56;5077516;28;45487;-69
2022/07/14 05:46:07;;;;;;;;;9.50;8.75;;;;;-146.44;100.00;58906.56;5077387;28;45419;-69
2022/07/14 05:48:33;;;;;;;;;11.50;11.00;;;;;-146.44;100.00;58906.56;5077286;28;46221;-69
2022/07/14 05:51:22;;;;;;;;;9.25;9.25;;;;;-146.44;100.00;58906.56;5077346;27;45474;-69
2022/07/14 05:53:48;;;;;;;;;8.00;8.00;;;;;-146.44;100.00;58906.56;5077160;27;45468;-69
2022/07/14 05:56:17;;;;;;;;;9.50;9.50;;;;;-146.44;100.00;58906.56;5077485;28;45440;-70
2022/07/14 05:58:44;;;;;;;;;9.00;9.00;;;;;-146.44;100.00;58906.56;5076887;28;46106;-69
2022/07/14 06:01:09;;;;;;;;;8.25;8.25;;;;;-146.44;100.00;58906.56;5075761;28;45421;-69
2022/07/14 06:03:35;;;;;;;;;9.75;9.75;;;;;-146.44;100.00;58906.56;5077314;28;45381;-69
2022/07/14 06:06:06;;;;;;;;;9.00;8.75;;;;;-146.44;100.00;58906.56;5076939;28;45381;-69
2022/07/14 06:08:32;;;;;;;;;12.75;9.75;;;;;-146.44;100.00;58906.56;5076907;27;45529;-69
2022/07/14 06:10:58;;;;;;;;;8.75;8.75;;;;;-146.44;100.00;58906.56;5076420;28;45415;-68
2022/07/14 06:13:28;;;;;;;;;11.75;10.00;;;;;-146.44;100.00;58906.56;5076960;28;45393;-69
2022/07/14 06:15:55;;;;;;;;;10.00;10.00;;;;;-146.44;100.00;58906.56;5076780;28;45555;-69
2022/07/14 06:18:20;;;;;;;;;10.00;10.00;;;;;-146.44;100.00;58906.56;5092482;27;47576;-69
2022/07/14 06:20:47;;;;;;;;;9.00;7.75;;;;;-146.44;100.00;58906.56;5076759;27;45450;-69
2022/07/14 06:23:13;;;;;;;;;10.75;10.75;;;;;-146.44;100.00;58906.56;5077006;27;45341;-70
2022/07/14 06:25:41;;;;;;;;;12.00;12.00;;;;;-146.44;100.00;58906.56;5092570;27;45666;-69
2022/07/14 06:28:07;;;;;;;;;11.00;10.50;;;;;-146.44;100.00;58906.56;5076492;27;46211;-69
2022/07/14 06:30:33;;;;;;;;;12.00;10.75;;;;;-146.44;100.00;58906.56;5076487;27;45887;-69
2022/07/14 06:32:59;;;;;;;;;12.00;12.00;;;;;-146.44;100.00;58906.56;5076815;27;45417;-69
2022/07/14 06:35:25;;;;;;;;;8.50;8.50;;;;;-146.44;100.00;58906.56;5076627;28;45575;-70
2022/07/14 06:37:55;;;;;;;;;13.25;12.25;;;;;-146.44;100.00;58906.56;5076423;28;45467;-69
2022/07/14 06:40:20;;;;;;;;;11.75;11.75;;;;;-146.44;100.00;58906.56;5076606;28;45390;-69
2022/07/14 06:42:46;;;;;;;;;15.00;14.25;;;;;-146.44;100.00;58906.56;5076265;28;45440;-69
2022/07/14 06:45:12;;;;;;;;;15.25;15.25;;;;;-146.44;100.00;58906.56;5076519;28;45471;-70
2022/07/14 06:47:38;;;;;;;;;12.25;12.25;;;;;-146.44;100.00;58906.56;5076347;27;46032;-69
2022/07/14 06:50:05;;;;;;;;;16.50;16.50;;;;;-146.44;100.00;58906.56;5076366;28;45479;-69
2022/07/14 06:52:30;;;;;;;;;16.50;14.25;;;;;-146.44;100.00;58906.56;5076482;28;45426;-70
2022/07/14 06:54:58;;;;;;;;;13.50;12.25;;;;;-146.44;100.00;58906.56;5076385;27;45469;-70
2022/07/14 06:57:23;;;;;;;;;12.75;11.25;;;;;-146.44;100.00;58906.56;5091967;27;45503;-70
2022/07/14 06:59:48;;;;;;;;;11.50;11.50;;;;;-146.44;100.00;58906.56;5076086;27;45394;-69
2022/07/14 07:02:14;;;;;;;;;11.50;10.50;;;;;-146.44;100.00;58906.56;5076419;28;45405;-70
2022/07/14 07:04:39;;;;;;;;;13.25;11.50;;;;;-146.44;100.00;58906.56;5076115;28;45547;-70
2022/07/14 07:07:05;;;;;;;;;11.75;11.75;;;;;-146.44;100.00;58906.56;5076028;27;46471;-70
2022/07/14 07:09:30;;;;;;;;;12.00;12.00;;;;;-146.44;100.00;58906.56;5076038;27;45409;-69
2022/07/14 07:11:55;;;;;;;;;10.75;10.75;;;;;-146.44;100.00;58906.56;5076091;28;45494;-70
2022/07/14 07:14:21;;;;;;;;;11.00;11.00;;;;;-146.44;100.00;58906.56;5075875;27;45449;-69
2022/07/14 07:16:47;;;;;;;;;10.50;10.00;;;;;-146.44;100.00;58906.56;5075746;28;46534;-70
2022/07/14 07:19:14;;;;;;;;;11.25;11.25;;;;;-146.44;100.00;58906.56;5075849;28;45479;-70
2022/07/14 07:21:39;;;;;;;;;11.50;11.50;;;;;-146.44;100.00;58906.56;5074997;28;45426;-69
2022/07/14 07:24:05;;;;;;;;;13.00;13.00;;;;;-146.44;100.00;58906.56;5075862;28;45411;-69
2022/07/14 07:26:36;;;;;;;;;12.25;12.25;;;;;-146.44;100.00;58906.56;5075408;28;46274;-70
2022/07/14 07:29:03;;;;;;;;;12.75;12.75;;;;;-146.44;100.00;58906.56;5075723;27;45408;-70
2022/07/14 07:31:28;;;;;;;;;11.25;11.25;;;;;-146.44;100.00;58906.56;5075661;28;45466;-69
2022/07/14 07:33:54;;;;;;;;;12.00;12.00;;;;;-146.44;100.00;58906.56;5075803;28;45434;-69
2022/07/14 07:36:20;;;;;;;;;11.50;11.50;;;;;-146.44;100.00;58906.56;5075632;28;45425;-69
2022/07/14 07:38:46;;;;;;;;;15.25;11.50;;;;;-146.44;100.00;58906.56;5075488;28;45507;-70
2022/07/14 07:41:11;;;;;;;;;11.75;11.75;;;;;-146.44;100.00;58906.56;5075586;27;45449;-70
2022/07/14 07:43:37;;;;;;;;;10.25;10.25;;;;;-146.44;100.00;58906.56;5075571;28;45616;-70
2022/07/14 07:46:03;;;;;;;;;11.75;11.75;;;;;-146.44;100.00;58906.56;5075454;28;45407;-69
2022/07/14 07:48:29;;;;;;;;;11.50;10.50;;;;;-146.44;100.00;58906.56;5074166;28;45411;-69
2022/07/14 07:50:55;;;;;;;;;10.75;10.75;;;;;-146.44;100.00;58906.56;5075474;28;45436;-69
2022/07/14 07:53:21;;;;;;;;;13.00;13.00;;;;;-146.44;100.00;58906.56;5075431;27;45402;-69
2022/07/14 07:55:47;;;;;;;;;12.25;11.00;;;;;-146.44;100.00;58906.56;5075097;28;46114;-69
2022/07/14 07:58:12;;;;;;;;;12.00;11.00;;;;;-146.44;100.00;58906.56;5075344;28;45392;-70
2022/07/14 08:00:37;;;;;;;;;13.25;13.00;;;;;-146.44;100.00;58906.56;5075631;27;45513;-70
2022/07/14 08:03:04;;;;;;;;;14.25;12.25;;;;;-146.44;100.00;58906.56;5075398;28;45400;-69
2022/07/14 08:05:30;;;;;;;;;11.00;11.00;;;;;-146.44;100.00;58906.56;5075097;28;46152;-69
2022/07/14 08:07:56;;;;;;;;;15.00;13.75;;;;;-146.44;100.00;58906.56;5075128;28;45504;-70
2022/07/14 08:10:22;;;;;;;;;11.00;11.00;;;;;-146.44;100.00;58906.56;5075351;28;45462;-71
2022/07/14 08:12:48;;;;;;;;;11.25;9.00;;;;;-146.44;100.00;58906.56;5075198;28;45621;-70
2022/07/14 08:15:14;;;;;;;;;15.50;12.75;;;;;-146.44;100.00;58906.56;5074925;28;46427;-70
2022/07/14 08:17:40;;;;;;;;;12.50;10.75;;;;;-146.44;100.00;58906.56;5075052;28;45438;-70
2022/07/14 08:20:10;;;;;;;;;12.00;12.00;;;;;-146.44;100.00;58906.56;5075299;28;45375;-70
2022/07/14 08:22:37;;;;;;;;;13.50;13.50;;;;;-146.44;100.00;58906.56;5075425;27;45491;-70
2022/07/14 08:25:05;;;;;;;;;9.00;9.00;;;;;-146.44;100.00;58906.56;5090700;27;45484;-69
2022/07/14 08:27:30;;;;;;;;;7.25;5.00;;;;;-146.44;100.00;58906.56;5074899;28;45420;-68
2022/07/14 08:29:56;;;;;;;;;9.75;9.75;;;;;-146.44;100.00;58906.56;5075133;28;45478;-69
2022/07/14 08:32:41;;;;;;;;;12.50;12.00;;;;;-146.44;100.00;58906.56;5075091;27;45346;-69
2022/07/14 08:35:09;;;;;;;;;12.00;11.00;;;;;-146.44;100.00;58906.56;5078410;28;46386;-70
2022/07/14 08:37:35;;;;;;;;;11.00;9.75;;;;;-146.44;100.00;58906.56;5078484;27;45453;-69
2022/07/14 08:40:07;;;;;;;;;11.25;10.00;;;;;-146.44;100.00;58906.56;5078627;28;45423;-69
2022/07/14 08:42:33;;;;;;;;;10.50;10.50;;;;;-146.44;100.00;58906.56;5078391;28;45349;-69
2022/07/14 08:44:59;;;;;;;;;12.00;11.00;;;;;-146.44;100.00;58906.56;5078227;27;45430;-69
2022/07/14 08:47:25;;;;;;;;;12.50;11.50;;;;;-146.44;100.00;58906.56;5077001;27;45480;-69
2022/07/14 08:49:51;;;;;;;;;9.00;9.00;;;;;-146.44;100.00;58906.56;5078412;28;45494;-68
2022/07/14 08:52:17;;;;;;;;;11.50;10.25;;;;;-146.44;100.00;58906.56;5078599;28;45454;-68
2022/07/14 08:54:45;;;;;;;;;9.00;7.25;;;;;-146.44;100.00;58906.56;5077972;27;45393;-68
2022/07/14 08:57:10;;;;;;;;;11.00;11.00;;;;;-146.44;100.00;58906.56;5078242;28;45326;-69
2022/07/14 08:59:35;;;;;;;;;9.25;9.25;;;;;-146.44;100.00;58906.56;5077009;28;45390;-69
2022/07/14 09:02:01;;;;;;;;;9.25;9.25;;;;;-146.44;100.00;58906.56;5078095;27;45520;-69
2022/07/14 09:04:26;;;;;;;;;8.00;8.00;;;;;-146.44;100.00;58906.56;5077911;27;45400;-68
2022/07/14 09:06:53;;;;;;;;;9.50;9.50;;;;;-146.44;100.00;58906.56;5077998;28;45430;-69
2022/07/14 09:09:20;;;;;;;;;10.75;9.25;;;;;-146.44;100.00;58906.56;5078121;27;45488;-69
2022/07/14 09:11:49;;;;;;;;;10.00;10.00;;;;;-146.44;100.00;58906.56;5078068;27;45501;-70
2022/07/14 09:14:14;;;;;;;;;11.25;8.75;;;;;-146.44;100.00;58906.56;5077856;27;47159;-69
2022/07/14 09:16:40;;;;;;;;;7.00;7.00;;;;;-146.44;100.00;58906.56;5078166;27;45626;-69
2022/07/14 09:19:12;;;;;;;;;10.25;10.25;;;;;-146.44;100.00;58906.56;5078194;27;45484;-69
2022/07/14 09:21:39;;;;;;;;;9.00;8.50;;;;;-146.44;100.00;58906.56;5078115;28;45499;-68
2022/07/14 09:24:07;;;;;;;;;12.00;12.00;;;;;-146.44;100.00;58906.56;5076500;28;45505;-69
2022/07/14 09:26:44;;;;;;;;;12.00;12.00;;;;;-146.44;100.00;58906.56;5077620;28;45401;-69
2022/07/14 09:29:18;;;;;;;;;12.00;10.50;;;;;-146.44;100.00;58906.56;5078114;27;45516;-70
2022/07/14 09:31:43;;;;;;;;;9.75;9.75;;;;;-146.44;100.00;58906.56;5093558;27;45488;-69
2022/07/14 09:34:22;;;;;;;;;7.25;7.25;;;;;-146.44;100.00;58906.56;5076146;28;46583;-69
2022/07/14 09:36:49;;;;;;;;;10.00;8.80;;;;;-146.44;100.00;58906.56;5093078;27;45504;-69
2022/07/14 09:39:15;;;;;;;;;10.00;10.00;;;;;-146.44;100.00;58906.56;5077625;28;45401;-69
2022/07/14 09:41:55;;;;;;;;;6.25;6.00;;;;;-146.44;100.00;58906.56;5077657;28;45567;-70
2022/07/14 09:44:22;;;;;;;;;7.00;7.00;;;;;-146.44;100.00;58906.56;5076948;27;45454;-69
2022/07/14 09:46:57;;;;;;;;;8.40;8.40;;;;;-146.44;100.00;58906.56;5076877;28;45409;-70
2022/07/14 09:49:28;;;;;;;;;9.50;9.50;;;;;-146.44;100.00;58906.56;5077483;28;45434;-69
2022/07/14 09:52:01;;;;;;;;;9.00;9.00;;;;;-146.44;100.00;58906.56;5077511;28;45457;-69
2022/07/14 09:54:42;;;;;;;;;8.00;8.00;;;;;-146.44;100.00;58906.56;5077236;28;45489;-69
2022/07/14 09:57:19;;;;;;;;;8.00;8.00;;;;;-146.44;100.00;58906.56;5077556;27;45310;-70
2022/07/14 09:59:48;;;;;;;;;9.00;9.00;;;;;-146.44;100.00;58906.56;5077354;27;45393;-70
2022/07/14 10:02:17;;;;;;;;;8.00;8.00;;;;;-146.44;100.00;58906.56;5077195;28;45433;-70
2022/07/14 10:04:44;;;;;;;;;10.00;8.50;;;;;-146.44;100.00;58906.56;5077092;27;46247;-69
2022/07/14 10:07:11;;;;;;;;;8.75;8.75;;;;;-146.44;100.00;58906.56;5077073;28;45438;-70
2022/07/14 10:09:43;;;;;;;;;9.75;9.75;;;;;-146.44;100.00;58906.56;5077181;27;45418;-69
2022/07/14 10:12:09;;;;;;;;;8.75;8.75;;;;;-146.44;100.00;58906.56;5077285;27;45440;-71
2022/07/14 10:14:36;;;;;;;;;9.00;8.00;;;;;-146.44;100.00;58906.56;5076735;28;46089;-70
2022/07/14 10:17:02;;;;;;;;;8.80;7.80;;;;;-146.44;100.00;58906.56;5076918;28;45465;-70
2022/07/14 10:19:28;;;;;;;;;7.75;7.75;;;;;-146.44;100.00;58906.56;5076938;28;45378;-70
2022/07/14 10:21:55;;;;;;;;;11.50;11.50;;;;;-146.44;100.00;58906.56;5075672;28;45449;-70
2022/07/14 10:24:22;;;;;;;;;10.25;9.50;;;;;-146.44;100.00;58906.56;5076755;28;46086;-70
2022/07/14 10:26:48;;;;;;;;;8.25;8.25;;;;;-146.44;100.00;58906.56;5076668;28;45532;-70
2022/07/14 10:29:14;;;;;;;;;9.25;9.25;;;;;-146.44;100.00;58906.56;5076578;28;45313;-70
2022/07/14 10:32:12;;;;;;;;;9.50;9.50;;;;;-146.44;100.00;58906.56;5076799;28;45386;-70
2022/07/14 10:35:08;;;;;;;;;8.00;8.00;;;;;-146.44;100.00;58906.56;5075145;28;45647;-69
2022/07/14 10:38:02;;;;;;;;;7.00;7.00;;;;;-146.44;100.00;58906.56;5076619;28;45457;-69
2022/07/14 10:40:52;;;;;;;;;8.75;8.75;;;;;-146.44;100.00;58906.56;5092693;27;45364;-69
2022/07/14 10:43:22;;;;;;;;;8.00;8.00;;;;;-146.44;100.00;58906.56;5076667;27;45468;-69
2022/07/14 10:45:49;;;;;;;;;7.00;7.00;;;;;-146.44;100.00;58906.56;5076399;28;45381;-70
2022/07/14 10:48:35;;;;;;;;;8.00;8.00;;;;;-146.44;100.00;58906.56;5076489;28;46118;-70
2022/07/14 10:51:29;;;;;;;;;6.20;6.20;;;;;-146.44;100.00;58906.56;5076729;28;45401;-70
2022/07/14 10:54:13;;;;;;;;;8.00;6.00;;;;;-146.44;100.00;58906.56;5076388;28;45524;-70
2022/07/14 10:56:40;;;;;;;;;5.20;5.20;;;;;-146.44;100.00;58906.56;5076280;27;46048;-70
2022/07/14 10:59:24;;;;;;;;;6.60;5.60;;;;;-146.44;100.00;58906.56;5076274;28;45473;-69
2022/07/14 11:02:14;;;;;;;;;6.40;6.40;;;;;-146.44;100.00;58906.56;5092125;27;45407;-70
2022/07/14 11:08:01;;;;;;;;;5.20;5.20;;;;;-146.44;100.00;58906.56;5075981;27;45886;-69
2022/07/14 11:10:27;;;;;;;;;6.00;6.00;;;;;-146.44;100.00;58906.56;5076215;27;45471;-70
2022/07/14 11:13:04;;;;;;;;;5.25;5.25;;;;;-146.44;100.00;58906.56;5076339;28;45437;-70